Ellston, Iowa
Current Conditions -  °F | °C
As of 10:53 PM on Saturday 20 Dec 2014 (Local Time) from KLWD Reporting Station
Haze Haze  
Wind Chill: 29°   Ceiling: 400
Heat Index: 37°   Visibility: 5mi
Dew Point: 36°   Wind: 12mph
Humidity: 96%   Direction: 180°S
Pressure: 30.09"   Gusts: NA
Location:  40.84°N, 94.11°W
Report Text: KLWD 210453Z AUTO 18010KT 5SM BR OVC004 03/02 A3009 RMK AO2 SLP200 T00280022
Loading
Personal Weather Stations






























Interactive Weather Map New forecast layout! Learn more

10-Day Weather Forecast

Advertisements
Track Severe Weather on mobile